sensor_id;sensor_type;location;lat;lon;timestamp;pressure;altitude;pressure_sealevel;temperature;humidity
7918;BME280;4004;42.624;23.386;2023-03-16T00:01:46;93206.72;;;3.40;100.00
7918;BME280;4004;42.624;23.386;2023-03-16T00:04:12;93212.94;;;3.44;100.00
7918;BME280;4004;42.624;23.386;2023-03-16T00:06:39;93218.34;;;3.35;100.00
7918;BME280;4004;42.624;23.386;2023-03-16T00:09:06;93205.16;;;3.26;100.00
7918;BME280;4004;42.624;23.386;2023-03-16T00:11:34;93216.03;;;3.34;100.00
7918;BME280;4004;42.624;23.386;2023-03-16T00:14:00;93208.84;;;3.34;100.00
7918;BME280;4004;42.624;23.386;2023-03-16T00:16:28;93217.25;;;3.36;100.00
7918;BME280;4004;42.624;23.386;2023-03-16T00:18:56;93228.31;;;3.26;100.00
7918;BME280;4004;42.624;23.386;2023-03-16T00:21:23;93235.19;;;3.27;100.00
7918;BME280;4004;42.624;23.386;2023-03-16T00:23:50;93225.75;;;3.17;100.00
7918;BME280;4004;42.624;23.386;2023-03-16T00:26:17;93230.16;;;3.13;100.00
7918;BME280;4004;42.624;23.386;2023-03-16T00:28:44;93229.25;;;3.09;100.00
7918;BME280;4004;42.624;23.386;2023-03-16T00:31:11;93219.97;;;3.03;100.00
7918;BME280;4004;42.624;23.386;2023-03-16T00:33:38;93230.16;;;3.01;100.00
7918;BME280;4004;42.624;23.386;2023-03-16T00:36:08;93236.75;;;2.95;100.00
7918;BME280;4004;42.624;23.386;2023-03-16T00:38:37;93228.34;;;2.93;100.00
7918;BME280;4004;42.624;23.386;2023-03-16T00:41:05;93236.19;;;2.89;100.00
7918;BME280;4004;42.624;23.386;2023-03-16T00:43:35;93242.81;;;2.83;100.00
7918;BME280;4004;42.624;23.386;2023-03-16T00:46:05;93237.16;;;2.84;100.00
7918;BME280;4004;42.624;23.386;2023-03-16T00:48:32;93231.72;;;2.68;100.00
7918;BME280;4004;42.624;23.386;2023-03-16T00:51:00;93240.25;;;2.74;100.00
7918;BME280;4004;42.624;23.386;2023-03-16T00:53:30;93241.16;;;2.78;100.00
7918;BME280;4004;42.624;23.386;2023-03-16T00:55:57;93236.38;;;2.72;100.00
7918;BME280;4004;42.624;23.386;2023-03-16T00:58:24;93248.16;;;2.62;100.00
7918;BME280;4004;42.624;23.386;2023-03-16T01:00:51;93242.22;;;2.65;100.00
7918;BME280;4004;42.624;23.386;2023-03-16T01:03:19;93245.97;;;2.64;100.00
7918;BME280;4004;42.624;23.386;2023-03-16T01:05:46;93243.09;;;2.69;100.00
7918;BME280;4004;42.624;23.386;2023-03-16T01:08:13;93257.94;;;2.70;100.00
7918;BME280;4004;42.624;23.386;2023-03-16T01:10:41;93254.06;;;2.67;100.00
7918;BME280;4004;42.624;23.386;2023-03-16T01:13:09;93237.16;;;2.72;100.00
7918;BME280;4004;42.624;23.386;2023-03-16T01:15:37;93230.69;;;2.61;100.00
7918;BME280;4004;42.624;23.386;2023-03-16T01:18:04;93240.88;;;2.71;100.00
7918;BME280;4004;42.624;23.386;2023-03-16T01:20:31;93238.22;;;2.59;100.00
7918;BME280;4004;42.624;23.386;2023-03-16T01:22:58;93232.19;;;2.49;100.00
7918;BME280;4004;42.624;23.386;2023-03-16T01:25:24;93240.34;;;2.44;100.00
7918;BME280;4004;42.624;23.386;2023-03-16T01:27:52;93249.28;;;2.40;100.00
7918;BME280;4004;42.624;23.386;2023-03-16T01:30:19;93259.44;;;2.38;100.00
7918;BME280;4004;42.624;23.386;2023-03-16T01:32:46;93251.16;;;2.39;100.00
7918;BME280;4004;42.624;23.386;2023-03-16T01:35:13;93255.56;;;2.35;100.00
7918;BME280;4004;42.624;23.386;2023-03-16T01:37:39;93251.88;;;2.27;100.00
7918;BME280;4004;42.624;23.386;2023-03-16T01:40:08;93260.16;;;2.26;100.00
7918;BME280;4004;42.624;23.386;2023-03-16T01:42:47;93230.72;;;2.19;100.00
7918;BME280;4004;42.624;23.386;2023-03-16T01:48:20;93250.88;;;2.11;100.00
7918;BME280;4004;42.624;23.386;2023-03-16T01:50:50;93242.88;;;1.99;100.00
7918;BME280;4004;42.624;23.386;2023-03-16T01:53:18;93258.63;;;1.95;100.00
7918;BME280;4004;42.624;23.386;2023-03-16T01:55:46;93261.63;;;1.94;100.00
7918;BME280;4004;42.624;23.386;2023-03-16T01:58:13;93262.66;;;2.01;100.00
7918;BME280;4004;42.624;23.386;2023-03-16T02:00:41;93264.94;;;2.12;100.00
7918;BME280;4004;42.624;23.386;2023-03-16T02:03:12;93263.25;;;2.07;100.00
7918;BME280;4004;42.624;23.386;2023-03-16T02:05:44;93268.88;;;2.05;100.00
7918;BME280;4004;42.624;23.386;2023-03-16T02:08:15;93276.78;;;2.14;100.00
7918;BME280;4004;42.624;23.386;2023-03-16T02:10:44;93275.66;;;2.15;100.00
7918;BME280;4004;42.624;23.386;2023-03-16T02:13:11;93266.81;;;2.11;100.00
7918;BME280;4004;42.624;23.386;2023-03-16T02:15:38;93279.13;;;2.16;100.00
7918;BME280;4004;42.624;23.386;2023-03-16T02:18:06;93288.25;;;2.27;100.00
7918;BME280;4004;42.624;23.386;2023-03-16T02:20:40;93295.28;;;2.23;100.00
7918;BME280;4004;42.624;23.386;2023-03-16T02:23:12;93284.63;;;2.32;100.00
7918;BME280;4004;42.624;23.386;2023-03-16T02:25:49;93300.75;;;2.18;100.00
7918;BME280;4004;42.624;23.386;2023-03-16T02:28:24;93305.78;;;2.11;100.00
7918;BME280;4004;42.624;23.386;2023-03-16T02:30:55;93308.66;;;2.05;100.00
7918;BME280;4004;42.624;23.386;2023-03-16T02:33:23;93308.94;;;2.04;100.00
7918;BME280;4004;42.624;23.386;2023-03-16T02:35:51;93298.53;;;1.99;100.00
7918;BME280;4004;42.624;23.386;2023-03-16T02:38:17;93305.69;;;2.07;100.00
7918;BME280;4004;42.624;23.386;2023-03-16T02:40:45;93304.94;;;1.98;100.00
7918;BME280;4004;42.624;23.386;2023-03-16T02:43:25;93301.97;;;1.99;100.00
7918;BME280;4004;42.624;23.386;2023-03-16T02:45:57;93321.63;;;1.98;100.00
7918;BME280;4004;42.624;23.386;2023-03-16T02:48:30;93312.84;;;2.06;100.00
7918;BME280;4004;42.624;23.386;2023-03-16T02:50:58;93313.63;;;2.07;100.00
7918;BME280;4004;42.624;23.386;2023-03-16T02:53:25;93312.84;;;2.06;100.00
7918;BME280;4004;42.624;23.386;2023-03-16T02:55:52;93324.34;;;2.11;100.00
7918;BME280;4004;42.624;23.386;2023-03-16T02:58:18;93314.13;;;2.00;100.00
7918;BME280;4004;42.624;23.386;2023-03-16T03:00:45;93330.03;;;2.00;100.00
7918;BME280;4004;42.624;23.386;2023-03-16T03:03:13;93324.13;;;1.95;100.00
7918;BME280;4004;42.624;23.386;2023-03-16T03:05:40;93337.44;;;1.86;100.00
7918;BME280;4004;42.624;23.386;2023-03-16T03:08:07;93333.03;;;1.90;100.00
7918;BME280;4004;42.624;23.386;2023-03-16T03:10:34;93334.78;;;1.86;100.00
7918;BME280;4004;42.624;23.386;2023-03-16T03:13:00;93330.94;;;1.75;100.00
7918;BME280;4004;42.624;23.386;2023-03-16T03:15:27;93331.25;;;1.73;100.00
7918;BME280;4004;42.624;23.386;2023-03-16T03:17:54;93335.78;;;1.73;100.00
7918;BME280;4004;42.624;23.386;2023-03-16T03:20:22;93339.53;;;1.72;100.00
7918;BME280;4004;42.624;23.386;2023-03-16T03:22:49;93342.34;;;1.66;100.00
7918;BME280;4004;42.624;23.386;2023-03-16T03:25:17;93346.19;;;1.78;100.00
7918;BME280;4004;42.624;23.386;2023-03-16T03:27:46;93320.34;;;1.75;100.00
7918;BME280;4004;42.624;23.386;2023-03-16T03:30:16;93352.03;;;1.62;100.00
7918;BME280;4004;42.624;23.386;2023-03-16T03:32:43;93347.81;;;1.61;100.00
7918;BME280;4004;42.624;23.386;2023-03-16T03:35:11;93349.66;;;1.70;100.00
7918;BME280;4004;42.624;23.386;2023-03-16T03:37:39;93345.28;;;1.74;100.00
7918;BME280;4004;42.624;23.386;2023-03-16T03:40:11;93352.44;;;1.73;100.00
7918;BME280;4004;42.624;23.386;2023-03-16T03:42:38;93340.31;;;1.72;100.00
7918;BME280;4004;42.624;23.386;2023-03-16T03:45:06;93353.25;;;1.74;100.00
7918;BME280;4004;42.624;23.386;2023-03-16T03:47:33;93349.31;;;1.71;100.00
7918;BME280;4004;42.624;23.386;2023-03-16T03:50:00;93357.47;;;1.66;100.00
7918;BME280;4004;42.624;23.386;2023-03-16T03:52:27;93380.53;;;1.65;100.00
7918;BME280;4004;42.624;23.386;2023-03-16T03:54:55;93363.44;;;1.54;100.00
7918;BME280;4004;42.624;23.386;2023-03-16T03:57:22;93372.78;;;1.60;100.00
7918;BME280;4004;42.624;23.386;2023-03-16T03:59:48;93387.13;;;1.51;100.00
7918;BME280;4004;42.624;23.386;2023-03-16T04:02:15;93380.88;;;1.55;100.00
7918;BME280;4004;42.624;23.386;2023-03-16T04:04:42;93384.59;;;1.63;100.00
7918;BME280;4004;42.624;23.386;2023-03-16T04:07:10;93376.03;;;1.57;100.00
7918;BME280;4004;42.624;23.386;2023-03-16T04:09:37;93379.50;;;1.49;100.00
7918;BME280;4004;42.624;23.386;2023-03-16T04:12:05;93386.34;;;1.50;100.00
7918;BME280;4004;42.624;23.386;2023-03-16T04:14:32;93390.53;;;1.51;100.00
7918;BME280;4004;42.624;23.386;2023-03-16T04:16:59;93380.56;;;1.57;100.00
7918;BME280;4004;42.624;23.386;2023-03-16T04:19:26;93389.63;;;1.56;100.00
7918;BME280;4004;42.624;23.386;2023-03-16T04:21:53;93395.69;;;1.56;100.00
7918;BME280;4004;42.624;23.386;2023-03-16T04:24:19;93400.97;;;1.56;100.00
7918;BME280;4004;42.624;23.386;2023-03-16T04:26:47;93372.66;;;1.31;100.00
7918;BME280;4004;42.624;23.386;2023-03-16T04:29:15;93403.16;;;1.63;100.00
7918;BME280;4004;42.624;23.386;2023-03-16T04:31:43;93409.53;;;1.53;100.00
7918;BME280;4004;42.624;23.386;2023-03-16T04:34:11;93419.38;;;1.44;100.00
7918;BME280;4004;42.624;23.386;2023-03-16T04:36:37;93408.63;;;1.49;100.00
7918;BME280;4004;42.624;23.386;2023-03-16T04:39:05;93414.56;;;1.37;100.00
7918;BME280;4004;42.624;23.386;2023-03-16T04:41:32;93420.78;;;1.41;100.00
7918;BME280;4004;42.624;23.386;2023-03-16T04:43:59;93430.44;;;1.37;100.00
7918;BME280;4004;42.624;23.386;2023-03-16T04:46:27;93421.72;;;1.45;100.00
7918;BME280;4004;42.624;23.386;2023-03-16T04:48:54;93425.91;;;1.55;100.00
7918;BME280;4004;42.624;23.386;2023-03-16T04:51:23;93438.06;;;1.56;100.00
7918;BME280;4004;42.624;23.386;2023-03-16T04:53:50;93445.06;;;1.61;100.00
7918;BME280;4004;42.624;23.386;2023-03-16T04:56:17;93450.22;;;1.57;100.00
7918;BME280;4004;42.624;23.386;2023-03-16T04:58:44;93438.84;;;1.48;100.00
7918;BME280;4004;42.624;23.386;2023-03-16T05:01:11;93454.44;;;1.50;100.00
7918;BME280;4004;42.624;23.386;2023-03-16T05:03:40;93459.56;;;1.46;100.00
7918;BME280;4004;42.624;23.386;2023-03-16T05:06:08;93453.81;;;1.44;100.00
7918;BME280;4004;42.624;23.386;2023-03-16T05:08:36;93454.09;;;1.51;100.00
7918;BME280;4004;42.624;23.386;2023-03-16T05:11:03;93468.00;;;1.48;100.00
7918;BME280;4004;42.624;23.386;2023-03-16T05:13:30;93462.97;;;1.55;100.00
7918;BME280;4004;42.624;23.386;2023-03-16T05:15:56;93470.78;;;1.60;100.00
7918;BME280;4004;42.624;23.386;2023-03-16T05:18:23;93466.56;;;1.68;100.00
7918;BME280;4004;42.624;23.386;2023-03-16T05:20:52;93477.16;;;1.68;100.00
7918;BME280;4004;42.624;23.386;2023-03-16T05:23:20;93471.22;;;1.71;100.00
7918;BME280;4004;42.624;23.386;2023-03-16T05:25:48;93475.13;;;1.74;100.00
7918;BME280;4004;42.624;23.386;2023-03-16T05:28:15;93478.25;;;1.76;100.00
7918;BME280;4004;42.624;23.386;2023-03-16T05:30:43;93493.50;;;1.79;100.00
7918;BME280;4004;42.624;23.386;2023-03-16T05:33:10;93478.09;;;1.72;100.00
7918;BME280;4004;42.624;23.386;2023-03-16T05:35:37;93493.81;;;1.69;100.00
7918;BME280;4004;42.624;23.386;2023-03-16T05:38:05;93490.22;;;1.73;100.00
7918;BME280;4004;42.624;23.386;2023-03-16T05:40:32;93496.75;;;1.84;100.00
7918;BME280;4004;42.624;23.386;2023-03-16T05:42:59;93492.28;;;1.76;100.00
7918;BME280;4004;42.624;23.386;2023-03-16T05:45:27;93504.56;;;1.81;100.00
7918;BME280;4004;42.624;23.386;2023-03-16T05:47:53;93505.81;;;1.75;100.00
7918;BME280;4004;42.624;23.386;2023-03-16T05:50:20;93499.59;;;1.79;100.00
7918;BME280;4004;42.624;23.386;2023-03-16T05:52:47;93493.03;;;1.85;100.00
7918;BME280;4004;42.624;23.386;2023-03-16T05:55:16;93508.63;;;1.78;100.00
7918;BME280;4004;42.624;23.386;2023-03-16T05:57:43;93514.72;;;1.79;100.00
7918;BME280;4004;42.624;23.386;2023-03-16T06:00:12;93512.81;;;1.88;100.00
7918;BME280;4004;42.624;23.386;2023-03-16T06:02:41;93520.31;;;1.77;100.00
7918;BME280;4004;42.624;23.386;2023-03-16T06:05:08;93520.31;;;1.69;100.00
7918;BME280;4004;42.624;23.386;2023-03-16T06:07:35;93518.00;;;1.67;100.00
7918;BME280;4004;42.624;23.386;2023-03-16T06:10:03;93534.34;;;1.78;100.00
7918;BME280;4004;42.624;23.386;2023-03-16T06:12:31;93528.28;;;1.69;100.00
7918;BME280;4004;42.624;23.386;2023-03-16T06:14:59;93511.44;;;1.73;100.00
7918;BME280;4004;42.624;23.386;2023-03-16T06:17:26;93525.31;;;1.61;100.00
7918;BME280;4004;42.624;23.386;2023-03-16T06:19:53;93529.69;;;1.75;100.00
7918;BME280;4004;42.624;23.386;2023-03-16T06:22:19;93535.63;;;1.72;100.00
7918;BME280;4004;42.624;23.386;2023-03-16T06:24:46;93546.03;;;1.68;100.00
7918;BME280;4004;42.624;23.386;2023-03-16T06:27:13;93544.50;;;1.67;100.00
7918;BME280;4004;42.624;23.386;2023-03-16T06:29:41;93560.53;;;1.71;100.00
7918;BME280;4004;42.624;23.386;2023-03-16T06:32:08;93559.94;;;1.82;100.00
7918;BME280;4004;42.624;23.386;2023-03-16T06:34:35;93557.88;;;1.88;100.00
7918;BME280;4004;42.624;23.386;2023-03-16T06:37:02;93561.78;;;1.82;100.00
7918;BME280;4004;42.624;23.386;2023-03-16T06:39:29;93569.88;;;1.85;100.00
7918;BME280;4004;42.624;23.386;2023-03-16T06:41:56;93569.72;;;1.91;100.00
7918;BME280;4004;42.624;23.386;2023-03-16T06:44:23;93565.19;;;1.91;100.00
7918;BME280;4004;42.624;23.386;2023-03-16T06:46:51;93578.16;;;1.93;100.00
7918;BME280;4004;42.624;23.386;2023-03-16T06:49:18;93585.91;;;2.06;100.00
7918;BME280;4004;42.624;23.386;2023-03-16T06:51:45;93593.41;;;2.04;100.00
7918;BME280;4004;42.624;23.386;2023-03-16T06:54:12;93581.25;;;2.12;100.00
7918;BME280;4004;42.624;23.386;2023-03-16T06:56:39;93591.69;;;2.08;100.00
7918;BME280;4004;42.624;23.386;2023-03-16T06:59:06;93568.44;;;2.14;100.00
7918;BME280;4004;42.624;23.386;2023-03-16T07:01:32;93596.13;;;2.60;100.00
7918;BME280;4004;42.624;23.386;2023-03-16T07:04:01;93593.78;;;2.59;100.00
7918;BME280;4004;42.624;23.386;2023-03-16T07:06:27;93610.16;;;2.61;100.00
7918;BME280;4004;42.624;23.386;2023-03-16T07:08:54;93609.31;;;2.69;100.00
7918;BME280;4004;42.624;23.386;2023-03-16T07:11:21;93612.09;;;2.81;100.00
7918;BME280;4004;42.624;23.386;2023-03-16T07:13:47;93613.66;;;2.82;100.00
7918;BME280;4004;42.624;23.386;2023-03-16T07:16:14;93600.97;;;2.97;100.00
7918;BME280;4004;42.624;23.386;2023-03-16T07:18:41;93606.84;;;3.83;100.00
7918;BME280;4004;42.624;23.386;2023-03-16T07:21:10;93615.16;;;4.81;100.00
7918;BME280;4004;42.624;23.386;2023-03-16T07:23:36;93610.53;;;4.90;100.00
7918;BME280;4004;42.624;23.386;2023-03-16T07:26:03;93621.22;;;5.27;100.00
7918;BME280;4004;42.624;23.386;2023-03-16T07:28:32;93619.63;;;5.51;100.00
7918;BME280;4004;42.624;23.386;2023-03-16T07:30:59;93626.97;;;5.54;100.00
7918;BME280;4004;42.624;23.386;2023-03-16T07:33:26;93630.16;;;5.72;100.00
7918;BME280;4004;42.624;23.386;2023-03-16T07:35:52;93629.38;;;5.84;96.13
7918;BME280;4004;42.624;23.386;2023-03-16T07:38:21;93648.28;;;5.17;93.04
7918;BME280;4004;42.624;23.386;2023-03-16T07:40:48;93640.88;;;4.65;97.01
7918;BME280;4004;42.624;23.386;2023-03-16T07:43:16;93649.00;;;4.14;99.14
7918;BME280;4004;42.624;23.386;2023-03-16T07:45:46;93636.44;;;3.81;100.00
7918;BME280;4004;42.624;23.386;2023-03-16T07:48:13;93638.31;;;3.51;100.00
7918;BME280;4004;42.624;23.386;2023-03-16T07:50:40;93648.00;;;3.26;100.00
7918;BME280;4004;42.624;23.386;2023-03-16T07:53:07;93654.75;;;3.23;100.00
7918;BME280;4004;42.624;23.386;2023-03-16T07:55:35;93652.53;;;3.25;100.00
7918;BME280;4004;42.624;23.386;2023-03-16T07:58:03;93656.28;;;3.24;100.00
7918;BME280;4004;42.624;23.386;2023-03-16T08:00:30;93649.56;;;3.27;100.00
7918;BME280;4004;42.624;23.386;2023-03-16T08:02:57;93663.22;;;3.46;100.00
7918;BME280;4004;42.624;23.386;2023-03-16T08:05:24;93660.03;;;3.53;100.00
7918;BME280;4004;42.624;23.386;2023-03-16T08:07:51;93655.84;;;3.52;100.00
7918;BME280;4004;42.624;23.386;2023-03-16T08:10:18;93667.72;;;3.55;100.00
7918;BME280;4004;42.624;23.386;2023-03-16T08:12:46;93667.09;;;3.49;100.00
7918;BME280;4004;42.624;23.386;2023-03-16T08:15:13;93673.41;;;3.36;100.00
7918;BME280;4004;42.624;23.386;2023-03-16T08:17:40;93677.69;;;3.58;100.00
7918;BME280;4004;42.624;23.386;2023-03-16T08:20:08;93671.78;;;3.52;100.00
7918;BME280;4004;42.624;23.386;2023-03-16T08:22:38;93684.13;;;3.78;100.00
7918;BME280;4004;42.624;23.386;2023-03-16T08:25:07;93681.44;;;3.86;100.00
7918;BME280;4004;42.624;23.386;2023-03-16T08:27:35;93672.22;;;3.84;100.00
7918;BME280;4004;42.624;23.386;2023-03-16T08:30:04;93671.69;;;3.69;100.00
7918;BME280;4004;42.624;23.386;2023-03-16T08:32:32;93686.72;;;3.65;100.00
7918;BME280;4004;42.624;23.386;2023-03-16T08:34:59;93679.47;;;3.53;100.00
7918;BME280;4004;42.624;23.386;2023-03-16T08:37:26;93682.34;;;3.69;100.00
7918;BME280;4004;42.624;23.386;2023-03-16T08:39:52;93681.69;;;3.72;100.00
7918;BME280;4004;42.624;23.386;2023-03-16T08:42:19;93674.25;;;3.57;100.00
7918;BME280;4004;42.624;23.386;2023-03-16T08:44:46;93697.59;;;3.51;100.00
7918;BME280;4004;42.624;23.386;2023-03-16T08:47:14;93689.59;;;3.60;100.00
7918;BME280;4004;42.624;23.386;2023-03-16T08:49:42;93690.16;;;3.66;100.00
7918;BME280;4004;42.624;23.386;2023-03-16T08:52:09;93701.50;;;3.54;100.00
7918;BME280;4004;42.624;23.386;2023-03-16T08:54:37;93706.22;;;3.78;100.00
7918;BME280;4004;42.624;23.386;2023-03-16T08:57:04;93705.09;;;3.79;100.00
7918;BME280;4004;42.624;23.386;2023-03-16T08:59:31;93705.31;;;3.95;100.00
7918;BME280;4004;42.624;23.386;2023-03-16T09:01:57;93702.66;;;3.95;100.00
7918;BME280;4004;42.624;23.386;2023-03-16T09:04:26;93712.56;;;4.07;99.36
7918;BME280;4004;42.624;23.386;2023-03-16T09:06:54;93703.00;;;3.93;99.31
7918;BME280;4004;42.624;23.386;2023-03-16T09:09:21;93717.19;;;3.68;98.30
7918;BME280;4004;42.624;23.386;2023-03-16T09:11:47;93713.63;;;3.64;99.13
7918;BME280;4004;42.624;23.386;2023-03-16T09:14:15;93709.63;;;3.79;99.49
7918;BME280;4004;42.624;23.386;2023-03-16T09:16:43;93707.56;;;3.84;98.42
7918;BME280;4004;42.624;23.386;2023-03-16T09:19:10;93715.94;;;3.74;98.41
7918;BME280;4004;42.624;23.386;2023-03-16T09:21:39;93723.28;;;3.68;98.41
7918;BME280;4004;42.624;23.386;2023-03-16T09:24:06;93730.31;;;3.73;98.56
7918;BME280;4004;42.624;23.386;2023-03-16T09:26:33;93730.16;;;3.99;98.56
7918;BME280;4004;42.624;23.386;2023-03-16T09:29:00;93717.78;;;4.03;97.65
7918;BME280;4004;42.624;23.386;2023-03-16T09:31:27;93716.97;;;3.82;95.70
7918;BME280;4004;42.624;23.386;2023-03-16T09:33:54;93733.75;;;3.73;95.60
7918;BME280;4004;42.624;23.386;2023-03-16T09:36:21;93727.34;;;3.74;95.87
7918;BME280;4004;42.624;23.386;2023-03-16T09:38:49;93735.25;;;3.53;96.45
7918;BME280;4004;42.624;23.386;2023-03-16T09:41:30;93735.00;;;3.76;97.99
7918;BME280;4004;42.624;23.386;2023-03-16T09:44:03;93734.81;;;3.81;98.99
7918;BME280;4004;42.624;23.386;2023-03-16T09:46:34;93732.09;;;3.90;98.73
7918;BME280;4004;42.624;23.386;2023-03-16T09:49:03;93737.16;;;4.04;97.46
7918;BME280;4004;42.624;23.386;2023-03-16T09:51:35;93724.47;;;4.09;96.17
7918;BME280;4004;42.624;23.386;2023-03-16T09:54:14;93741.53;;;4.08;94.99
7918;BME280;4004;42.624;23.386;2023-03-16T09:56:45;93748.13;;;4.02;95.19
7918;BME280;4004;42.624;23.386;2023-03-16T09:59:13;93735.56;;;4.11;94.61
7918;BME280;4004;42.624;23.386;2023-03-16T10:01:49;93743.09;;;4.09;95.25
7918;BME280;4004;42.624;23.386;2023-03-16T10:04:28;93740.25;;;4.14;96.35
7918;BME280;4004;42.624;23.386;2023-03-16T10:07:02;93747.03;;;4.24;97.36
7918;BME280;4004;42.624;23.386;2023-03-16T10:09:35;93745.91;;;4.34;97.55
7918;BME280;4004;42.624;23.386;2023-03-16T10:12:06;93749.19;;;4.31;97.48
7918;BME280;4004;42.624;23.386;2023-03-16T10:14:39;93757.50;;;4.29;98.14
7918;BME280;4004;42.624;23.386;2023-03-16T10:17:14;93758.03;;;4.23;98.50
7918;BME280;4004;42.624;23.386;2023-03-16T10:19:45;93747.00;;;4.33;99.23
7918;BME280;4004;42.624;23.386;2023-03-16T10:22:19;93754.72;;;4.26;99.14
7918;BME280;4004;42.624;23.386;2023-03-16T10:25:01;93755.63;;;4.00;99.69
7918;BME280;4004;42.624;23.386;2023-03-16T10:27:32;93751.53;;;4.11;100.00
7918;BME280;4004;42.624;23.386;2023-03-16T10:30:05;93747.38;;;4.23;99.98
7918;BME280;4004;42.624;23.386;2023-03-16T10:32:33;93740.91;;;4.11;98.26
7918;BME280;4004;42.624;23.386;2023-03-16T10:35:04;93750.78;;;4.02;98.03
7918;BME280;4004;42.624;23.386;2023-03-16T10:37:32;93753.19;;;3.95;99.66
7918;BME280;4004;42.624;23.386;2023-03-16T10:40:05;93757.22;;;4.01;99.84
7918;BME280;4004;42.624;23.386;2023-03-16T10:42:35;93754.09;;;4.20;99.31
7918;BME280;4004;42.624;23.386;2023-03-16T10:45:03;93746.72;;;4.26;98.75
7918;BME280;4004;42.624;23.386;2023-03-16T10:47:31;93750.63;;;4.28;98.72
7918;BME280;4004;42.624;23.386;2023-03-16T10:50:10;93755.16;;;4.28;98.08
7918;BME280;4004;42.624;23.386;2023-03-16T10:52:39;93746.28;;;4.24;96.75
7918;BME280;4004;42.624;23.386;2023-03-16T10:55:14;93745.03;;;4.21;98.04
7918;BME280;4004;42.624;23.386;2023-03-16T10:57:47;93743.41;;;4.08;97.66
7918;BME280;4004;42.624;23.386;2023-03-16T11:00:19;93746.72;;;4.05;99.15
7918;BME280;4004;42.624;23.386;2023-03-16T11:02:46;93747.66;;;4.00;97.84
7918;BME280;4004;42.624;23.386;2023-03-16T11:05:25;93740.59;;;4.04;97.74
7918;BME280;4004;42.624;23.386;2023-03-16T11:07:58;93755.38;;;4.23;97.86
7918;BME280;4004;42.624;23.386;2023-03-16T11:10:30;93744.56;;;4.40;96.66
7918;BME280;4004;42.624;23.386;2023-03-16T11:13:03;93750.25;;;4.39;93.56
7918;BME280;4004;42.624;23.386;2023-03-16T11:15:36;93749.13;;;4.40;92.65
7918;BME280;4004;42.624;23.386;2023-03-16T11:18:04;93750.50;;;4.46;91.83
7918;BME280;4004;42.624;23.386;2023-03-16T11:20:34;93749.47;;;4.59;91.25
7918;BME280;4004;42.624;23.386;2023-03-16T11:23:01;93754.91;;;4.63;90.76
7918;BME280;4004;42.624;23.386;2023-03-16T11:25:32;93752.44;;;4.57;89.39
7918;BME280;4004;42.624;23.386;2023-03-16T11:28:10;93753.22;;;4.37;88.41
7918;BME280;4004;42.624;23.386;2023-03-16T11:30:45;93752.13;;;4.38;89.68
7918;BME280;4004;42.624;23.386;2023-03-16T11:33:16;93764.75;;;4.20;90.66
7918;BME280;4004;42.624;23.386;2023-03-16T11:35:46;93765.63;;;4.33;90.65
7918;BME280;4004;42.624;23.386;2023-03-16T11:38:18;93753.09;;;4.33;91.16
7918;BME280;4004;42.624;23.386;2023-03-16T11:40:53;93757.69;;;4.24;90.91
7918;BME280;4004;42.624;23.386;2023-03-16T11:43:45;93759.09;;;4.01;91.67
7918;BME280;4004;42.624;23.386;2023-03-16T11:46:14;93769.28;;;3.99;92.50
7918;BME280;4004;42.624;23.386;2023-03-16T11:48:52;93757.47;;;4.08;91.94
7918;BME280;4004;42.624;23.386;2023-03-16T11:51:34;93762.59;;;4.13;91.49
7918;BME280;4004;42.624;23.386;2023-03-16T11:54:12;93753.34;;;4.20;91.65
7918;BME280;4004;42.624;23.386;2023-03-16T11:56:46;93744.00;;;4.34;91.72
7918;BME280;4004;42.624;23.386;2023-03-16T11:59:30;93761.16;;;4.25;91.16
7918;BME280;4004;42.624;23.386;2023-03-16T12:02:32;93754.97;;;4.33;90.67
7918;BME280;4004;42.624;23.386;2023-03-16T12:05:21;93769.44;;;4.23;91.20
7918;BME280;4004;42.624;23.386;2023-03-16T12:07:55;93759.31;;;4.17;92.27
7918;BME280;4004;42.624;23.386;2023-03-16T12:10:30;93767.63;;;4.15;92.81
7918;BME280;4004;42.624;23.386;2023-03-16T12:13:24;93769.56;;;4.06;92.66
7918;BME280;4004;42.624;23.386;2023-03-16T12:15:58;93771.09;;;4.07;92.79
7918;BME280;4004;42.624;23.386;2023-03-16T12:18:34;93771.28;;;4.02;93.22
7918;BME280;4004;42.624;23.386;2023-03-16T12:21:05;93772.44;;;3.92;94.38
7918;BME280;4004;42.624;23.386;2023-03-16T12:23:36;93767.13;;;3.92;94.44
7918;BME280;4004;42.624;23.386;2023-03-16T12:26:04;93781.84;;;3.89;94.10
7918;BME280;4004;42.624;23.386;2023-03-16T12:28:35;93783.16;;;4.04;93.67
7918;BME280;4004;42.624;23.386;2023-03-16T12:31:07;93785.09;;;3.95;93.31
7918;BME280;4004;42.624;23.386;2023-03-16T12:34:04;93780.97;;;4.06;93.40
7918;BME280;4004;42.624;23.386;2023-03-16T12:40:02;93782.06;;;4.05;94.00
7918;BME280;4004;42.624;23.386;2023-03-16T12:43:12;93797.44;;;4.00;93.60
7918;BME280;4004;42.624;23.386;2023-03-16T12:45:50;93783.81;;;4.01;93.18
7918;BME280;4004;42.624;23.386;2023-03-16T12:48:26;93794.16;;;4.03;93.21
7918;BME280;4004;42.624;23.386;2023-03-16T12:50:56;93799.34;;;3.90;93.49
7918;BME280;4004;42.624;23.386;2023-03-16T12:53:28;93800.50;;;3.81;93.66
7918;BME280;4004;42.624;23.386;2023-03-16T12:56:05;93779.50;;;3.88;93.95
7918;BME280;4004;42.624;23.386;2023-03-16T12:58:34;93791.56;;;3.85;94.73
7918;BME280;4004;42.624;23.386;2023-03-16T13:01:08;93801.78;;;3.74;97.36
7918;BME280;4004;42.624;23.386;2023-03-16T13:03:37;93794.91;;;3.73;99.23
7918;BME280;4004;42.624;23.386;2023-03-16T13:06:04;93803.50;;;3.70;100.00
7918;BME280;4004;42.624;23.386;2023-03-16T13:08:40;93810.59;;;3.58;100.00
7918;BME280;4004;42.624;23.386;2023-03-16T13:11:10;93805.97;;;3.76;100.00
7918;BME280;4004;42.624;23.386;2023-03-16T13:13:47;93818.66;;;3.79;100.00
7918;BME280;4004;42.624;23.386;2023-03-16T13:16:25;93807.25;;;3.78;100.00
7918;BME280;4004;42.624;23.386;2023-03-16T13:18:52;93821.00;;;3.80;100.00
7918;BME280;4004;42.624;23.386;2023-03-16T13:21:21;93814.56;;;3.81;100.00
7918;BME280;4004;42.624;23.386;2023-03-16T13:23:55;93827.81;;;3.60;100.00
7918;BME280;4004;42.624;23.386;2023-03-16T13:26:35;93820.44;;;3.57;100.00
7918;BME280;4004;42.624;23.386;2023-03-16T13:29:16;93829.06;;;3.54;100.00
7918;BME280;4004;42.624;23.386;2023-03-16T13:31:46;93827.94;;;3.55;100.00
7918;BME280;4004;42.624;23.386;2023-03-16T13:34:15;93829.66;;;3.60;100.00